Latest Weather Observations for Ernabella/Pukatja

IDS60801

Issued at 10:02 am CDT Friday 6 March 2015 (issued every 30 minutes, with the page automatically refreshed every 10 minutes)

About weather observations | Map of weather stations | Latest weather observations for SA | Other Formats
Station Details ID: 016097 Name: PUKATJA Lat: -26.26 Lon: 132.18 Height: 703.2 m
Data from the previous 72 hours. | See also: Recent months at Ernabella/Pukatja
Date/Time
CDT
Temp
°C
App
Temp
°C
Dew
Point
Rel
Hum
%
Delta-T
°C
Wind Press
QNH
hPa
Press
MSL
hPa
Rain
since 9 am
mm
Dir
 
Spd
km/h
Gust
km/h
Spd
kts
Gust
kts
06/10:00am 21.9 15.6 5.8 35 8.3 ESE 28 35 15 19 1020.4 - 0.0
06/09:30am 21.0 15.1 5.8 37 7.8 ESE 26 32 14 17 1020.4 - 0.0
06/09:00am 20.9 15.1 6.1 38 7.7 ESE 26 33 14 18 1020.3 1016.1 0.0
06/08:30am 19.8 14.0 6.2 41 7.0 SE 26 33 14 18 1020.2 - 0.0
06/08:00am 19.7 14.7 6.4 42 6.9 SE 22 30 12 16 1020.2 - 0.0
06/07:30am 19.5 14.5 6.3 42 6.8 ESE 22 30 12 16 1019.8 - 0.0
06/07:00am 19.6 14.5 6.0 41 7.0 SE 22 32 12 17 1019.7 - 0.0
06/06:30am 19.7 13.8 5.7 40 7.2 ESE 26 35 14 19 1019.6 - 0.0
06/06:00am 20.0 13.8 6.0 40 7.2 SE 28 37 15 20 1019.5 1015.3 0.0
06/05:30am 20.0 14.1 5.6 39 7.4 SE 26 35 14 19 1019.8 - 0.0
06/05:00am 20.4 15.5 5.2 37 7.7 SE 20 30 11 16 1019.7 - 0.0
06/04:30am 21.0 15.8 5.4 36 8.0 SE 22 32 12 17 1019.6 - 0.0
06/04:00am 21.2 16.7 5.9 37 7.9 SE 19 28 10 15 1019.6 - 0.0
06/03:30am 21.6 17.4 5.9 36 8.2 SE 17 32 9 17 1019.9 - 0.0
06/03:00am 21.9 17.8 6.2 36 8.2 SE 17 24 9 13 1020.2 1015.9 0.0
06/02:30am 22.2 18.5 6.4 36 8.3 SE 15 22 8 12 1020.4 - 0.0
06/02:00am 22.5 18.4 6.3 35 8.5 SE 17 26 9 14 1020.8 - 0.0
06/01:30am 23.0 17.8 5.4 32 9.1 SE 22 32 12 17 1021.0 - 0.0
06/01:00am 23.5 18.2 4.9 30 9.6 SSE 22 35 12 19 1021.2 - 0.0
06/12:30am 24.1 18.8 5.0 29 9.9 SSE 22 32 12 17 1021.2 - 0.0
06/12:00am 24.6 19.7 4.9 28 10.2 SSE 20 30 11 16 1021.3 1017.1 0.0
 
Date/Time
CDT
Temp
°C
App
Temp
°C
Dew
Point
Rel
Hum
%
Delta-T
°C
Wind Press
QNH
hPa
Press
MSL
hPa
Rain
since 9 am
mm
Dir
 
Spd
km/h
Gust
km/h
Spd
kts
Gust
kts
05/11:30pm 25.0 19.5 4.2 26 10.7 SE 22 32 12 17 1021.6 - 0.0
05/11:00pm 25.2 21.5 4.3 26 10.8 SSE 13 20 7 11 1021.8 - 0.0
05/10:30pm 25.6 20.5 4.1 25 11.1 SE 20 35 11 19 1021.3 - 0.0
05/10:00pm 25.9 20.3 3.2 23 11.5 SE 22 32 12 17 1021.0 - 0.0
05/09:30pm 26.4 19.8 4.2 24 11.5 SSE 28 39 15 21 1020.6 - 0.0
05/09:00pm 27.1 22.0 4.2 23 11.9 SE 20 32 11 17 1020.1 1015.8 0.0
05/08:30pm 27.5 22.1 4.5 23 12.1 SE 22 32 12 17 1019.5 - 0.0
05/08:00pm 28.0 23.2 5.6 24 12.0 SE 20 30 11 16 1019.0 - 0.0
05/07:30pm 28.9 23.2 5.1 22 12.7 SSE 24 32 13 17 1018.6 - 0.0
05/07:00pm 29.3 23.9 4.7 21 13.1 SE 22 30 12 16 1018.5 - 0.0
05/06:30pm 29.8 24.4 4.4 20 13.5 SE 22 32 12 17 1018.2 - 0.0
05/06:00pm 30.9 25.5 4.6 19 14.1 SSE 22 35 12 19 1018.3 1014.1 0.0
05/05:30pm 29.8 23.8 5.1 21 13.3 SSE 26 37 14 20 1018.2 - 0.0
05/05:00pm 31.3 26.0 4.9 19 14.3 SE 22 37 12 20 1018.3 - 0.0
05/04:30pm 29.8 24.5 5.1 21 13.3 SE 22 33 12 18 1018.7 - 0.0
05/04:00pm 31.0 25.5 6.1 21 13.7 E 24 35 13 19 1018.9 - 0.0
05/03:30pm 29.3 23.9 4.7 21 13.1 ESE 22 33 12 18 1019.4 - 0.0
05/03:00pm 30.7 26.0 5.9 21 13.5 ESE 20 37 11 20 1019.8 1015.6 0.0
05/02:30pm 29.9 24.8 5.9 22 13.1 E 22 35 12 19 1020.2 - 0.0
05/02:00pm 28.6 23.5 6.1 24 12.2 ESE 22 32 12 17 1020.7 - 0.0
05/01:30pm 28.4 23.4 6.5 25 12.0 ESE 22 33 12 18 1021.0 - 0.0
05/01:00pm 28.0 23.3 6.2 25 11.8 ESE 20 32 11 17 1021.4 - 0.0
05/12:30pm 26.9 21.1 6.3 27 11.1 ESE 26 33 14 18 1022.1 - 0.0
05/12:00pm 25.3 20.3 6.5 30 10.1 SE 22 37 12 20 1022.5 1018.3 0.0
05/11:30am 25.2 19.8 6.4 30 10.1 ESE 24 32 13 17 1022.7 - 0.0
05/11:00am 24.2 19.1 6.0 31 9.6 SE 22 35 12 19 1022.8 - 0.0
05/10:30am 23.7 19.7 6.5 33 9.2 SE 17 28 9 15 1022.7 - 0.0
05/10:00am 22.5 17.6 7.1 37 8.2 SE 22 33 12 18 1022.5 - 0.0
05/09:30am 21.6 17.2 7.4 40 7.6 SE 20 30 11 16 1022.2 - 0.0
05/09:00am 20.8 16.6 7.4 42 7.1 SE 19 26 10 14 1022.1 1017.9 0.0
05/08:30am 19.6 15.5 8.0 47 6.2 SE 19 30 10 16 1021.7 - 0.0
05/08:00am 19.6 15.7 8.6 49 5.9 SE 19 26 10 14 1021.3 - 0.0
05/07:30am 19.8 17.1 8.8 49 6.0 SE 13 22 7 12 1021.0 - 0.0
05/07:00am 20.1 16.0 8.8 48 6.1 SE 20 32 11 17 1020.5 - 0.0
05/06:30am 20.4 16.9 8.7 47 6.4 SSE 17 24 9 13 1020.4 - 0.0
05/06:00am 20.9 16.9 8.9 46 6.5 SSE 20 32 11 17 1020.2 1015.9 0.0
05/05:30am 21.3 17.3 8.9 45 6.8 SSE 20 33 11 18 1019.7 - 0.0
05/05:00am 21.9 17.7 9.8 46 6.8 S 22 35 12 19 1019.7 - 0.0
05/04:30am 22.5 18.5 10.3 46 6.9 SSE 22 32 12 17 1019.7 - 0.0
05/04:00am 22.9 19.4 10.3 45 7.1 SSE 19 30 10 16 1019.9 - 0.0
05/03:30am 23.2 20.1 10.3 44 7.3 SSE 17 32 9 17 1019.9 - 0.0
05/03:00am 23.7 20.3 10.4 43 7.6 SSE 19 26 10 14 1020.2 1015.9 0.0
05/02:30am 24.1 21.1 10.7 43 7.7 SSE 17 30 9 16 1020.5 - 0.0
05/02:00am 24.4 21.1 11.0 43 7.7 SSE 19 32 10 17 1020.6 - 0.0
05/01:30am 25.0 21.2 11.2 42 8.0 SSE 22 32 12 17 1020.6 - 0.0
05/01:00am 26.1 21.7 10.3 37 9.1 SSE 24 37 13 20 1020.3 - 0.0
05/12:30am 27.8 21.8 8.6 30 10.8 SE 30 41 16 22 1019.8 - 0.0
05/12:00am 28.1 22.9 8.9 30 10.9 SE 26 37 14 20 1019.8 1015.6 0.0
 
Date/Time
CDT
Temp
°C
App
Temp
°C
Dew
Point
Rel
Hum
%
Delta-T
°C
Wind Press
QNH
hPa
Press
MSL
hPa
Rain
since 9 am
mm
Dir
 
Spd
km/h
Gust
km/h
Spd
kts
Gust
kts
04/11:30pm 28.5 22.9 8.7 29 11.2 SE 28 37 15 20 1019.8 - 0.0
04/11:00pm 28.9 22.6 9.1 29 11.3 SE 32 46 17 25 1019.6 - 0.0
04/10:30pm 29.5 22.7 9.1 28 11.7 SE 35 46 19 25 1019.2 - 0.0
04/10:08pm 30.6 22.8 8.3 25 12.7 SSE 39 46 21 25 1018.9 - 0.0
04/10:00pm 31.5 27.8 7.9 23 13.4 SE 17 24 9 13 1018.5 - 0.0
04/09:30pm 31.8 27.6 8.1 23 13.5 SE 20 33 11 18 1018.1 - 0.0
04/09:00pm 32.3 28.0 7.9 22 13.9 SE 20 35 11 19 1017.6 1013.3 0.0
04/08:30pm 32.9 28.6 7.7 21 14.4 SE 20 30 11 16 1017.1 - 0.0
04/08:00pm 33.5 29.3 7.5 20 14.8 SE 19 24 10 13 1016.6 - 0.0
04/07:30pm 34.2 28.6 7.3 19 15.3 SE 26 39 14 21 1016.4 - 0.0
04/07:00pm 35.2 30.8 7.3 18 16.0 ESE 20 30 11 16 1016.0 - 0.0
04/06:30pm 35.9 31.0 7.0 17 16.5 ESE 22 28 12 15 1015.8 - 0.0
04/06:00pm 36.5 32.1 7.5 17 16.7 SSE 20 30 11 16 1015.5 1011.2 0.0
04/05:30pm 35.9 31.6 7.0 17 16.5 SE 19 41 10 22 1015.5 - 0.0
04/05:00pm 36.3 31.9 6.5 16 16.9 SE 19 32 10 17 1015.5 - 0.0
04/04:30pm 36.4 32.8 6.6 16 17.0 ENE 15 26 8 14 1015.6 - 0.0
04/04:00pm 36.3 31.9 6.5 16 16.9 E 19 28 10 15 1015.9 - 0.0
04/03:30pm 36.2 31.6 6.4 16 16.9 ENE 20 32 11 17 1016.2 - 0.0
04/03:00pm 35.8 31.1 6.1 16 16.7 ENE 20 30 11 16 1016.4 1012.2 0.0
04/02:30pm 35.2 30.6 6.5 17 16.2 NE 20 37 11 20 1016.6 - 0.0
04/02:00pm 34.9 29.9 7.9 19 15.6 E 24 35 13 19 1017.2 - 0.0
04/01:30pm 34.2 29.4 7.3 19 15.3 E 22 33 12 18 1017.8 - 0.0
04/01:00pm 32.5 27.3 7.4 21 14.2 E 24 37 13 20 1018.2 - 0.0
04/12:30pm 31.3 25.8 7.7 23 13.3 E 26 37 14 20 1018.7 - 0.0
04/12:00pm 31.0 26.5 8.7 25 12.8 E 22 33 12 18 1019.1 1014.9 0.0
04/11:30am 29.8 24.2 8.8 27 12.0 E 28 41 15 22 1019.4 - 0.0
04/11:00am 28.9 24.0 8.6 28 11.5 E 24 35 13 19 1019.5 - 0.0
04/10:30am 27.6 22.3 8.5 30 10.7 ESE 26 32 14 17 1019.5 - 0.0
04/10:00am 26.2 21.4 8.7 33 9.8 ESE 24 33 13 18 1019.5 - 0.0
04/09:30am 24.8 20.6 8.3 35 9.1 SE 20 28 11 15 1019.4 - 0.0
04/09:00am 24.4 20.5 7.1 33 9.3 SSE 17 24 9 13 1019.3 1015.1 0.0
04/08:30am 24.5 20.0 6.3 31 9.7 ESE 19 28 10 15 1018.8 - 0.0
04/08:00am 23.8 20.0 5.7 31 9.5 SE 15 28 8 15 1018.2 - 0.0
04/07:30am 23.8 20.2 5.2 30 9.7 SE 13 19 7 10 1017.9 - 0.0
04/07:00am 24.4 19.6 4.7 28 10.2 SE 19 28 10 15 1017.4 - 0.0
04/06:30am 24.6 19.2 4.4 27 10.4 SE 22 33 12 18 1016.6 - 0.0
04/06:00am 25.0 20.0 4.7 27 10.5 SE 20 32 11 17 1016.3 1012.0 0.0
04/05:30am 25.5 20.7 4.6 26 10.9 SE 19 30 10 16 1016.1 - 0.0
04/05:00am 25.9 20.6 4.9 26 11.0 SE 22 32 12 17 1015.9 - 0.0
04/04:30am 26.1 21.1 4.6 25 11.2 SE 20 28 11 15 1015.9 - 0.0
04/04:00am 26.7 22.0 5.1 25 11.4 SE 19 30 10 16 1016.2 - 0.0
04/03:30am 27.2 21.9 4.9 24 11.8 SE 22 33 12 18 1016.2 - 0.0
04/03:00am 27.8 22.5 4.8 23 12.2 SE 22 33 12 18 1016.2 1011.9 0.0
04/02:30am 28.2 23.2 4.5 22 12.5 SE 20 30 11 16 1016.4 - 0.0
04/02:00am 29.0 23.2 4.5 21 13.0 SE 24 37 13 20 1016.3 - 0.0
04/01:30am 29.4 22.5 4.8 21 13.1 SE 30 41 16 22 1016.4 - 0.0
04/01:00am 29.7 22.8 4.4 20 13.4 SE 30 44 16 24 1016.4 - 0.0
04/12:30am 29.7 22.8 4.4 20 13.4 SE 30 44 16 24 1016.5 - 0.0
04/12:00am 30.3 22.8 3.4 18 14.1 ESE 32 48 17 26 1016.3 1012.0 0.0
 
Date/Time
CDT
Temp
°C
App
Temp
°C
Dew
Point
Rel
Hum
%
Delta-T
°C
Wind Press
QNH
hPa
Press
MSL
hPa
Rain
since 9 am
mm
Dir
 
Spd
km/h
Gust
km/h
Spd
kts
Gust
kts
03/11:54pm 30.1 23.1 4.0 19 13.8 ESE 30 48 16 26 1016.4 - 0.0
03/11:30pm 30.3 23.7 4.1 19 13.9 SE 28 37 15 20 1016.5 - 0.0
03/11:00pm 30.9 24.2 3.8 18 14.3 ESE 28 41 15 22 1016.0 - 0.0
03/10:30pm 31.2 24.2 4.1 18 14.4 SE 30 41 16 22 1016.0 - 0.0
03/10:00pm 31.7 24.5 2.8 16 15.1 SE 30 46 16 25 1015.6 - 0.0
03/09:30pm 32.5 25.2 2.5 15 15.7 ESE 30 41 16 22 1015.1 - 0.0
03/09:00pm 33.5 26.6 2.4 14 16.3 ESE 28 37 15 20 1014.6 1010.3 0.0
03/08:30pm 34.3 27.3 1.9 13 17.0 ESE 28 39 15 21 1014.3 - 0.0
03/08:00pm 35.5 30.0 3.9 14 17.2 E 22 30 12 16 1013.7 - 0.0
03/07:30pm 36.3 31.3 4.6 14 17.5 E 20 32 11 17 1013.5 - 0.0
03/07:00pm 37.4 32.4 4.4 13 18.2 ESE 20 32 11 17 1013.2 - 0.0
03/06:30pm 37.4 32.8 5.4 14 18.0 ENE 19 26 10 14 1013.2 - 0.0
03/06:00pm 38.0 33.2 4.8 13 18.5 E 19 28 10 15 1013.2 1008.9 0.0
03/05:30pm 38.2 33.2 3.8 12 18.9 E 19 32 10 17 1013.1 - 0.0
03/05:00pm 38.4 33.9 4.0 12 19.0 E 17 32 9 17 1013.1 - 0.0
03/04:30pm 37.3 32.4 4.3 13 18.2 ESE 19 28 10 15 1013.3 - 0.0
03/04:00pm 37.9 32.3 3.6 12 18.8 E 22 33 12 18 1013.5 - 0.0
03/03:30pm 36.9 32.0 4.0 13 18.0 ENE 19 30 10 16 1013.8 - 0.0
03/03:00pm 37.5 32.4 3.3 12 18.6 ENE 19 28 10 15 1014.1 1009.8 0.0
03/02:30pm 36.5 31.1 4.7 14 17.6 ENE 22 35 12 19 1014.3 - 0.0
03/02:00pm 36.4 30.6 4.6 14 17.6 E 24 37 13 20 1014.7 - 0.0
03/01:30pm 35.6 30.5 4.0 14 17.2 E 20 32 11 17 1015.2 - 0.0
03/01:00pm 33.2 28.3 4.9 17 15.4 E 20 32 11 17 1015.6 - 0.0
03/12:30pm 33.1 28.5 5.6 18 15.2 E 19 28 10 15 1015.8 - 0.0
03/12:00pm 31.7 27.0 5.3 19 14.4 E 19 30 10 16 1016.3 1012.0 0.0
03/11:30am 30.8 27.0 6.0 21 13.6 ESE 15 22 8 12 1016.5 - 0.0
03/11:00am 29.2 24.7 6.0 23 12.6 ESE 19 24 10 13 1016.5 - 0.0
03/10:30am 28.1 24.0 6.2 25 11.9 SSE 17 24 9 13 1016.7 - 0.0

Other Formats:

Comma delimited format used in spreadsheet applications
http://www.bom.gov.au/fwo/IDS60801/IDS60801.94474.axf

JavaScript Object Notation format (JSON) in row-major order
http://www.bom.gov.au/fwo/IDS60801/IDS60801.94474.json